sensor_id;sensor_type;location;lat;lon;timestamp;pressure;altitude;pressure_sealevel;temperature;humidity
80137;BME280;69466;55.948;37.484;2023-11-19T00:01:24;100534.16;;;-8.10;73.48
80137;BME280;69466;55.948;37.484;2023-11-19T00:03:49;100519.69;;;-8.18;73.76
80137;BME280;69466;55.948;37.484;2023-11-19T00:06:17;100539.84;;;-8.17;73.60
80137;BME280;69466;55.948;37.484;2023-11-19T00:08:43;100537.09;;;-8.16;73.87
80137;BME280;69466;55.948;37.484;2023-11-19T00:11:09;100534.63;;;-8.19;73.73
80137;BME280;69466;55.948;37.484;2023-11-19T00:13:35;100532.78;;;-8.17;73.97
80137;BME280;69466;55.948;37.484;2023-11-19T00:16:01;100543.47;;;-8.20;74.00
80137;BME280;69466;55.948;37.484;2023-11-19T00:18:29;100538.06;;;-8.17;74.08
80137;BME280;69466;55.948;37.484;2023-11-19T00:20:55;100518.31;;;-8.25;73.73
80137;BME280;69466;55.948;37.484;2023-11-19T00:23:21;100521.88;;;-8.26;73.74
80137;BME280;69466;55.948;37.484;2023-11-19T00:25:47;100534.13;;;-8.25;74.12
80137;BME280;69466;55.948;37.484;2023-11-19T00:28:13;100532.25;;;-8.23;74.00
80137;BME280;69466;55.948;37.484;2023-11-19T00:30:39;100529.44;;;-8.20;74.45
80137;BME280;69466;55.948;37.484;2023-11-19T00:33:06;100537.09;;;-8.16;74.16
80137;BME280;69466;55.948;37.484;2023-11-19T00:35:32;100525.88;;;-8.19;74.25
80137;BME280;69466;55.948;37.484;2023-11-19T00:37:58;100530.91;;;-8.15;74.60
80137;BME280;69466;55.948;37.484;2023-11-19T00:40:24;100503.53;;;-8.28;74.48
80137;BME280;69466;55.948;37.484;2023-11-19T00:42:50;100522.88;;;-8.12;74.06
80137;BME280;69466;55.948;37.484;2023-11-19T00:45:16;100521.25;;;-8.14;74.56
80137;BME280;69466;55.948;37.484;2023-11-19T00:47:42;100521.91;;;-8.11;74.28
80137;BME280;69466;55.948;37.484;2023-11-19T00:50:09;100514.03;;;-8.11;74.08
80137;BME280;69466;55.948;37.484;2023-11-19T00:52:35;100509.00;;;-8.15;74.10
80137;BME280;69466;55.948;37.484;2023-11-19T00:55:03;100515.84;;;-8.11;73.98
80137;BME280;69466;55.948;37.484;2023-11-19T00:57:31;100508.25;;;-8.17;74.80
80137;BME280;69466;55.948;37.484;2023-11-19T00:59:59;100515.66;;;-8.08;74.30
80137;BME280;69466;55.948;37.484;2023-11-19T01:02:25;100509.47;;;-8.07;74.83
80137;BME280;69466;55.948;37.484;2023-11-19T01:04:51;100508.53;;;-8.06;74.73
80137;BME280;69466;55.948;37.484;2023-11-19T01:07:18;100507.94;;;-8.11;74.81
80137;BME280;69466;55.948;37.484;2023-11-19T01:09:43;100496.38;;;-8.09;75.92
80137;BME280;69466;55.948;37.484;2023-11-19T01:12:09;100488.72;;;-8.13;75.05
80137;BME280;69466;55.948;37.484;2023-11-19T01:14:38;100463.50;;;-8.17;74.95
80137;BME280;69466;55.948;37.484;2023-11-19T01:17:05;100475.50;;;-8.12;74.93
80137;BME280;69466;55.948;37.484;2023-11-19T01:19:31;100470.06;;;-8.09;74.91
80137;BME280;69466;55.948;37.484;2023-11-19T01:21:57;100477.88;;;-8.07;74.96
80137;BME280;69466;55.948;37.484;2023-11-19T01:24:23;100466.56;;;-8.09;74.81
80137;BME280;69466;55.948;37.484;2023-11-19T01:26:49;100464.19;;;-8.14;75.36
80137;BME280;69466;55.948;37.484;2023-11-19T01:29:15;100464.63;;;-8.06;75.00
80137;BME280;69466;55.948;37.484;2023-11-19T01:31:46;100472.63;;;-7.91;75.40
80137;BME280;69466;55.948;37.484;2023-11-19T01:34:17;100478.34;;;-7.83;74.82
80137;BME280;69466;55.948;37.484;2023-11-19T01:36:43;100473.78;;;-7.80;74.68
80137;BME280;69466;55.948;37.484;2023-11-19T01:39:09;100474.53;;;-7.78;74.05
80137;BME280;69466;55.948;37.484;2023-11-19T01:41:35;100459.94;;;-7.68;74.55
80137;BME280;69466;55.948;37.484;2023-11-19T01:44:02;100458.75;;;-7.62;74.29
80137;BME280;69466;55.948;37.484;2023-11-19T01:46:29;100443.84;;;-7.79;73.52
80137;BME280;69466;55.948;37.484;2023-11-19T01:48:59;100467.84;;;-7.52;74.01
80137;BME280;69466;55.948;37.484;2023-11-19T01:51:26;100472.63;;;-7.43;73.81
80137;BME280;69466;55.948;37.484;2023-11-19T01:53:54;100465.03;;;-7.33;73.53
80137;BME280;69466;55.948;37.484;2023-11-19T01:56:21;100465.34;;;-7.24;73.23
80137;BME280;69466;55.948;37.484;2023-11-19T01:58:48;100460.06;;;-7.24;73.19
80137;BME280;69466;55.948;37.484;2023-11-19T02:01:15;100455.13;;;-7.14;73.15
80137;BME280;69466;55.948;37.484;2023-11-19T02:03:43;100453.28;;;-7.12;73.16
80137;BME280;69466;55.948;37.484;2023-11-19T02:06:09;100441.53;;;-7.06;73.01
80137;BME280;69466;55.948;37.484;2023-11-19T02:08:39;100438.63;;;-7.02;73.09
80137;BME280;69466;55.948;37.484;2023-11-19T02:11:05;100448.81;;;-6.96;73.14
80137;BME280;69466;55.948;37.484;2023-11-19T02:13:33;100439.09;;;-6.95;73.52
80137;BME280;69466;55.948;37.484;2023-11-19T02:16:02;100445.38;;;-6.82;73.27
80137;BME280;69466;55.948;37.484;2023-11-19T02:18:29;100450.47;;;-6.79;73.00
80137;BME280;69466;55.948;37.484;2023-11-19T02:20:58;100441.78;;;-6.81;73.16
80137;BME280;69466;55.948;37.484;2023-11-19T02:23:28;100439.47;;;-6.72;73.41
80137;BME280;69466;55.948;37.484;2023-11-19T02:26:03;100449.47;;;-6.62;73.12
80137;BME280;69466;55.948;37.484;2023-11-19T02:28:33;100444.78;;;-6.57;73.25
80137;BME280;69466;55.948;37.484;2023-11-19T02:30:59;100446.97;;;-6.50;73.24
80137;BME280;69466;55.948;37.484;2023-11-19T02:33:25;100445.56;;;-6.41;73.23
80137;BME280;69466;55.948;37.484;2023-11-19T02:35:51;100450.00;;;-6.42;73.08
80137;BME280;69466;55.948;37.484;2023-11-19T02:38:17;100446.53;;;-6.42;73.21
80137;BME280;69466;55.948;37.484;2023-11-19T02:40:43;100447.09;;;-6.37;72.89
80137;BME280;69466;55.948;37.484;2023-11-19T02:43:09;100437.00;;;-6.31;73.19
80137;BME280;69466;55.948;37.484;2023-11-19T02:45:35;100433.88;;;-6.23;72.73
80137;BME280;69466;55.948;37.484;2023-11-19T02:48:02;100428.78;;;-6.26;72.96
80137;BME280;69466;55.948;37.484;2023-11-19T02:50:28;100433.06;;;-6.23;73.06
80137;BME280;69466;55.948;37.484;2023-11-19T02:52:55;100431.06;;;-6.20;72.64
80137;BME280;69466;55.948;37.484;2023-11-19T02:55:23;100426.44;;;-6.16;72.93
80137;BME280;69466;55.948;37.484;2023-11-19T02:57:50;100422.97;;;-6.03;72.81
80137;BME280;69466;55.948;37.484;2023-11-19T03:00:20;100427.31;;;-6.02;72.83
80137;BME280;69466;55.948;37.484;2023-11-19T03:02:52;100417.66;;;-6.03;72.82
80137;BME280;69466;55.948;37.484;2023-11-19T03:05:26;100406.63;;;-5.95;73.05
80137;BME280;69466;55.948;37.484;2023-11-19T03:07:55;100411.22;;;-5.85;73.12
80137;BME280;69466;55.948;37.484;2023-11-19T03:10:21;100407.63;;;-5.84;73.14
80137;BME280;69466;55.948;37.484;2023-11-19T03:12:46;100412.06;;;-5.84;72.84
80137;BME280;69466;55.948;37.484;2023-11-19T03:15:12;100405.72;;;-5.82;72.82
80137;BME280;69466;55.948;37.484;2023-11-19T03:17:39;100410.06;;;-5.81;72.79
80137;BME280;69466;55.948;37.484;2023-11-19T03:20:07;100412.41;;;-5.76;72.77
80137;BME280;69466;55.948;37.484;2023-11-19T03:22:37;100404.41;;;-5.74;72.72
80137;BME280;69466;55.948;37.484;2023-11-19T03:25:04;100407.78;;;-5.72;73.04
80137;BME280;69466;55.948;37.484;2023-11-19T03:27:36;100400.81;;;-5.73;72.82
80137;BME280;69466;55.948;37.484;2023-11-19T03:30:06;100402.97;;;-5.66;72.60
80137;BME280;69466;55.948;37.484;2023-11-19T03:32:32;100390.97;;;-5.71;72.67
80137;BME280;69466;55.948;37.484;2023-11-19T03:35:02;100406.00;;;-5.72;72.79
80137;BME280;69466;55.948;37.484;2023-11-19T03:37:31;100396.91;;;-5.68;72.32
80137;BME280;69466;55.948;37.484;2023-11-19T03:39:58;100405.03;;;-5.57;72.97
80137;BME280;69466;55.948;37.484;2023-11-19T03:42:26;100404.72;;;-5.52;72.47
80137;BME280;69466;55.948;37.484;2023-11-19T03:44:53;100402.47;;;-5.58;72.67
80137;BME280;69466;55.948;37.484;2023-11-19T03:47:20;100399.44;;;-5.52;72.46
80137;BME280;69466;55.948;37.484;2023-11-19T03:49:50;100396.44;;;-5.60;73.13
80137;BME280;69466;55.948;37.484;2023-11-19T03:52:17;100397.72;;;-5.53;72.69
80137;BME280;69466;55.948;37.484;2023-11-19T03:54:43;100380.59;;;-5.60;72.81
80137;BME280;69466;55.948;37.484;2023-11-19T03:57:09;100389.06;;;-5.55;72.90
80137;BME280;69466;55.948;37.484;2023-11-19T03:59:38;100391.72;;;-5.55;72.74
80137;BME280;69466;55.948;37.484;2023-11-19T04:02:04;100384.44;;;-5.52;73.07
80137;BME280;69466;55.948;37.484;2023-11-19T04:04:30;100393.94;;;-5.49;73.06
80137;BME280;69466;55.948;37.484;2023-11-19T04:06:56;100390.56;;;-5.51;72.71
80137;BME280;69466;55.948;37.484;2023-11-19T04:09:23;100386.00;;;-5.49;72.93
80137;BME280;69466;55.948;37.484;2023-11-19T04:11:49;100373.00;;;-5.52;72.86
80137;BME280;69466;55.948;37.484;2023-11-19T04:14:15;100365.06;;;-5.52;72.85
80137;BME280;69466;55.948;37.484;2023-11-19T04:16:44;100362.44;;;-5.52;72.64
80137;BME280;69466;55.948;37.484;2023-11-19T04:19:11;100347.84;;;-5.45;73.05
80137;BME280;69466;55.948;37.484;2023-11-19T04:21:40;100349.75;;;-5.47;73.26
80137;BME280;69466;55.948;37.484;2023-11-19T04:24:07;100352.41;;;-5.47;73.31
80137;BME280;69466;55.948;37.484;2023-11-19T04:26:33;100352.94;;;-5.42;73.21
80137;BME280;69466;55.948;37.484;2023-11-19T04:28:59;100350.41;;;-5.44;73.86
80137;BME280;69466;55.948;37.484;2023-11-19T04:31:29;100347.44;;;-5.39;73.86
80137;BME280;69466;55.948;37.484;2023-11-19T04:33:58;100349.06;;;-5.37;73.67
80137;BME280;69466;55.948;37.484;2023-11-19T04:36:26;100355.59;;;-5.42;73.58
80137;BME280;69466;55.948;37.484;2023-11-19T04:38:53;100358.88;;;-5.39;73.94
80137;BME280;69466;55.948;37.484;2023-11-19T04:41:19;100354.66;;;-5.41;73.65
80137;BME280;69466;55.948;37.484;2023-11-19T04:43:44;100364.16;;;-5.39;73.64
80137;BME280;69466;55.948;37.484;2023-11-19T04:46:10;100362.06;;;-5.33;74.03
80137;BME280;69466;55.948;37.484;2023-11-19T04:48:36;100364.81;;;-5.35;73.27
80137;BME280;69466;55.948;37.484;2023-11-19T04:51:05;100363.03;;;-5.34;73.64
80137;BME280;69466;55.948;37.484;2023-11-19T04:53:31;100369.91;;;-5.32;73.79
80137;BME280;69466;55.948;37.484;2023-11-19T04:55:57;100365.06;;;-5.25;73.86
80137;BME280;69466;55.948;37.484;2023-11-19T04:58:23;100366.66;;;-5.23;73.60
80137;BME280;69466;55.948;37.484;2023-11-19T05:00:48;100369.88;;;-5.18;73.82
80137;BME280;69466;55.948;37.484;2023-11-19T05:03:14;100376.66;;;-5.14;73.55
80137;BME280;69466;55.948;37.484;2023-11-19T05:05:40;100372.50;;;-5.18;73.70
80137;BME280;69466;55.948;37.484;2023-11-19T05:08:06;100374.72;;;-5.12;74.10
80137;BME280;69466;55.948;37.484;2023-11-19T05:10:32;100374.63;;;-5.10;73.31
80137;BME280;69466;55.948;37.484;2023-11-19T05:12:58;100363.84;;;-5.07;73.91
80137;BME280;69466;55.948;37.484;2023-11-19T05:15:23;100356.34;;;-5.13;73.47
80137;BME280;69466;55.948;37.484;2023-11-19T05:17:49;100363.28;;;-5.12;73.53
80137;BME280;69466;55.948;37.484;2023-11-19T05:20:16;100360.47;;;-5.09;73.79
80137;BME280;69466;55.948;37.484;2023-11-19T05:22:43;100371.28;;;-5.00;73.24
80137;BME280;69466;55.948;37.484;2023-11-19T05:25:09;100361.81;;;-5.04;73.19
80137;BME280;69466;55.948;37.484;2023-11-19T05:27:37;100364.84;;;-4.96;73.49
80137;BME280;69466;55.948;37.484;2023-11-19T05:30:06;100377.63;;;-4.89;72.90
80137;BME280;69466;55.948;37.484;2023-11-19T05:32:36;100372.25;;;-4.88;73.05
80137;BME280;69466;55.948;37.484;2023-11-19T05:35:02;100377.22;;;-4.83;73.62
80137;BME280;69466;55.948;37.484;2023-11-19T05:37:30;100373.31;;;-4.90;73.33
80137;BME280;69466;55.948;37.484;2023-11-19T05:39:56;100372.78;;;-4.83;73.75
80137;BME280;69466;55.948;37.484;2023-11-19T05:42:22;100368.03;;;-4.78;73.42
80137;BME280;69466;55.948;37.484;2023-11-19T05:44:49;100371.31;;;-4.74;73.17
80137;BME280;69466;55.948;37.484;2023-11-19T05:47:15;100371.09;;;-4.71;73.57
80137;BME280;69466;55.948;37.484;2023-11-19T05:49:42;100373.88;;;-4.73;73.60
80137;BME280;69466;55.948;37.484;2023-11-19T05:52:11;100373.56;;;-4.68;72.90
80137;BME280;69466;55.948;37.484;2023-11-19T05:54:38;100373.56;;;-4.68;73.32
80137;BME280;69466;55.948;37.484;2023-11-19T05:57:07;100368.66;;;-4.74;72.60
80137;BME280;69466;55.948;37.484;2023-11-19T05:59:36;100374.09;;;-4.63;72.99
80137;BME280;69466;55.948;37.484;2023-11-19T06:02:02;100369.94;;;-4.67;72.54
80137;BME280;69466;55.948;37.484;2023-11-19T06:04:28;100366.25;;;-4.65;72.85
80137;BME280;69466;55.948;37.484;2023-11-19T06:06:55;100367.94;;;-4.64;73.40
80137;BME280;69466;55.948;37.484;2023-11-19T06:09:21;100364.13;;;-4.60;72.50
80137;BME280;69466;55.948;37.484;2023-11-19T06:11:50;100367.50;;;-4.58;72.62
80137;BME280;69466;55.948;37.484;2023-11-19T06:14:16;100367.50;;;-4.58;72.00
80137;BME280;69466;55.948;37.484;2023-11-19T06:16:42;100365.06;;;-4.61;71.32
80137;BME280;69466;55.948;37.484;2023-11-19T06:19:09;100360.63;;;-4.60;69.35
80137;BME280;69466;55.948;37.484;2023-11-19T06:21:36;100350.97;;;-4.61;69.53
80137;BME280;69466;55.948;37.484;2023-11-19T06:24:02;100351.75;;;-4.59;69.69
80137;BME280;69466;55.948;37.484;2023-11-19T06:26:29;100354.06;;;-4.55;69.49
80137;BME280;69466;55.948;37.484;2023-11-19T06:28:54;100355.66;;;-4.52;70.25
80137;BME280;69466;55.948;37.484;2023-11-19T06:31:20;100349.81;;;-4.44;70.55
80137;BME280;69466;55.948;37.484;2023-11-19T06:33:47;100348.13;;;-4.45;69.16
80137;BME280;69466;55.948;37.484;2023-11-19T06:36:16;100343.47;;;-4.42;68.91
80137;BME280;69466;55.948;37.484;2023-11-19T06:38:43;100350.78;;;-4.33;68.75
80137;BME280;69466;55.948;37.484;2023-11-19T06:41:09;100352.47;;;-4.32;68.09
80137;BME280;69466;55.948;37.484;2023-11-19T06:43:36;100349.91;;;-4.33;66.91
80137;BME280;69466;55.948;37.484;2023-11-19T06:46:05;100347.91;;;-4.30;67.80
80137;BME280;69466;55.948;37.484;2023-11-19T06:48:32;100347.03;;;-4.30;68.34
80137;BME280;69466;55.948;37.484;2023-11-19T06:50:59;100335.09;;;-4.36;67.51
80137;BME280;69466;55.948;37.484;2023-11-19T06:53:25;100342.09;;;-4.22;67.61
80137;BME280;69466;55.948;37.484;2023-11-19T06:55:54;100336.66;;;-4.21;67.25
80137;BME280;69466;55.948;37.484;2023-11-19T06:58:20;100333.38;;;-4.24;66.64
80137;BME280;69466;55.948;37.484;2023-11-19T07:00:52;100336.78;;;-4.22;66.48
80137;BME280;69466;55.948;37.484;2023-11-19T07:03:17;100341.09;;;-4.21;66.40
80137;BME280;69466;55.948;37.484;2023-11-19T07:05:43;100327.03;;;-4.22;66.51
80137;BME280;69466;55.948;37.484;2023-11-19T07:08:09;100342.47;;;-4.16;66.23
80137;BME280;69466;55.948;37.484;2023-11-19T07:10:35;100338.25;;;-4.18;65.11
80137;BME280;69466;55.948;37.484;2023-11-19T07:13:01;100341.97;;;-4.08;64.44
80137;BME280;69466;55.948;37.484;2023-11-19T07:15:31;100340.13;;;-4.08;65.26
80137;BME280;69466;55.948;37.484;2023-11-19T07:17:58;100340.78;;;-4.04;65.19
80137;BME280;69466;55.948;37.484;2023-11-19T07:20:25;100346.81;;;-4.02;64.52
80137;BME280;69466;55.948;37.484;2023-11-19T07:22:53;100345.44;;;-4.08;64.62
80137;BME280;69466;55.948;37.484;2023-11-19T07:25:20;100355.59;;;-4.02;65.62
80137;BME280;69466;55.948;37.484;2023-11-19T07:27:46;100355.22;;;-4.08;65.72
80137;BME280;69466;55.948;37.484;2023-11-19T07:30:16;100344.69;;;-4.10;65.99
80137;BME280;69466;55.948;37.484;2023-11-19T07:32:43;100350.63;;;-4.06;65.54
80137;BME280;69466;55.948;37.484;2023-11-19T07:35:09;100340.78;;;-4.04;64.33
80137;BME280;69466;55.948;37.484;2023-11-19T07:37:35;100352.00;;;-4.00;64.37
80137;BME280;69466;55.948;37.484;2023-11-19T07:40:01;100355.59;;;-4.02;63.79
80137;BME280;69466;55.948;37.484;2023-11-19T07:42:30;100351.16;;;-4.01;64.65
80137;BME280;69466;55.948;37.484;2023-11-19T07:44:57;100349.69;;;-4.05;64.78
80137;BME280;69466;55.948;37.484;2023-11-19T07:47:23;100358.34;;;-3.90;63.93
80137;BME280;69466;55.948;37.484;2023-11-19T07:49:50;100346.44;;;-3.85;62.83
80137;BME280;69466;55.948;37.484;2023-11-19T07:52:16;100345.47;;;-3.84;63.73
80137;BME280;69466;55.948;37.484;2023-11-19T07:54:42;100338.16;;;-3.80;62.51
80137;BME280;69466;55.948;37.484;2023-11-19T07:57:08;100336.88;;;-3.75;62.61
80137;BME280;69466;55.948;37.484;2023-11-19T07:59:34;100348.94;;;-3.71;61.78
80137;BME280;69466;55.948;37.484;2023-11-19T08:02:05;100337.72;;;-3.74;61.15
80137;BME280;69466;55.948;37.484;2023-11-19T08:04:34;100336.75;;;-3.73;61.55
80137;BME280;69466;55.948;37.484;2023-11-19T08:07:00;100326.41;;;-3.76;62.50
80137;BME280;69466;55.948;37.484;2023-11-19T08:09:27;100327.63;;;-3.69;62.57
80137;BME280;69466;55.948;37.484;2023-11-19T08:11:54;100331.97;;;-3.68;62.03
80137;BME280;69466;55.948;37.484;2023-11-19T08:14:22;100332.59;;;-3.65;61.57
80137;BME280;69466;55.948;37.484;2023-11-19T08:16:48;100340.31;;;-3.62;61.79
80137;BME280;69466;55.948;37.484;2023-11-19T08:19:14;100323.06;;;-3.67;61.43
80137;BME280;69466;55.948;37.484;2023-11-19T08:21:42;100331.06;;;-3.56;61.06
80137;BME280;69466;55.948;37.484;2023-11-19T08:24:08;100315.63;;;-3.62;61.08
80137;BME280;69466;55.948;37.484;2023-11-19T08:26:34;100312.47;;;-3.67;61.16
80137;BME280;69466;55.948;37.484;2023-11-19T08:29:00;100308.63;;;-3.63;61.40
80137;BME280;69466;55.948;37.484;2023-11-19T08:31:27;100305.78;;;-3.73;61.48
80137;BME280;69466;55.948;37.484;2023-11-19T08:33:53;100313.06;;;-3.64;61.86
80137;BME280;69466;55.948;37.484;2023-11-19T08:36:19;100307.03;;;-3.66;60.95
80137;BME280;69466;55.948;37.484;2023-11-19T08:38:45;100313.63;;;-3.71;61.03
80137;BME280;69466;55.948;37.484;2023-11-19T08:41:12;100315.31;;;-3.70;61.27
80137;BME280;69466;55.948;37.484;2023-11-19T08:43:38;100309.91;;;-3.69;60.56
80137;BME280;69466;55.948;37.484;2023-11-19T08:46:09;100307.66;;;-3.62;61.55
80137;BME280;69466;55.948;37.484;2023-11-19T08:48:35;100315.16;;;-3.56;61.27
80137;BME280;69466;55.948;37.484;2023-11-19T08:51:02;100317.38;;;-3.50;60.46
80137;BME280;69466;55.948;37.484;2023-11-19T08:53:30;100310.47;;;-3.52;61.04
80137;BME280;69466;55.948;37.484;2023-11-19T08:55:56;100303.25;;;-3.50;61.41
80137;BME280;69466;55.948;37.484;2023-11-19T08:58:22;100304.09;;;-3.50;60.80
80137;BME280;69466;55.948;37.484;2023-11-19T09:00:47;100312.91;;;-3.49;60.63
80137;BME280;69466;55.948;37.484;2023-11-19T09:03:13;100304.28;;;-3.40;60.39
80137;BME280;69466;55.948;37.484;2023-11-19T09:05:39;100310.25;;;-3.49;60.20
80137;BME280;69466;55.948;37.484;2023-11-19T09:08:06;100309.78;;;-3.43;59.52
80137;BME280;69466;55.948;37.484;2023-11-19T09:10:36;100307.19;;;-3.56;60.80
80137;BME280;69466;55.948;37.484;2023-11-19T09:13:03;100313.63;;;-3.47;59.82
80137;BME280;69466;55.948;37.484;2023-11-19T09:15:29;100303.16;;;-3.49;59.48
80137;BME280;69466;55.948;37.484;2023-11-19T09:17:55;100311.03;;;-3.60;60.51
80137;BME280;69466;55.948;37.484;2023-11-19T09:20:21;100299.91;;;-3.65;60.27
80137;BME280;69466;55.948;37.484;2023-11-19T09:22:47;100304.09;;;-3.74;60.90
80137;BME280;69466;55.948;37.484;2023-11-19T09:25:14;100289.31;;;-3.65;60.88
80137;BME280;69466;55.948;37.484;2023-11-19T09:27:44;100286.84;;;-3.55;60.66
80137;BME280;69466;55.948;37.484;2023-11-19T09:30:10;100286.59;;;-3.52;60.16
80137;BME280;69466;55.948;37.484;2023-11-19T09:32:36;100286.13;;;-3.58;59.92
80137;BME280;69466;55.948;37.484;2023-11-19T09:35:03;100288.44;;;-3.53;59.43
80137;BME280;69466;55.948;37.484;2023-11-19T09:37:29;100280.56;;;-3.54;59.68
80137;BME280;69466;55.948;37.484;2023-11-19T09:39:55;100271.44;;;-3.50;59.07
80137;BME280;69466;55.948;37.484;2023-11-19T09:42:23;100268.19;;;-3.43;58.80
80137;BME280;69466;55.948;37.484;2023-11-19T09:44:50;100256.72;;;-3.43;58.40
80137;BME280;69466;55.948;37.484;2023-11-19T09:47:16;100252.28;;;-3.43;57.68
80137;BME280;69466;55.948;37.484;2023-11-19T09:49:42;100249.88;;;-3.46;57.77
80137;BME280;69466;55.948;37.484;2023-11-19T09:52:42;100245.16;;;-3.42;57.50
80137;BME280;69466;55.948;37.484;2023-11-19T09:55:09;100251.31;;;-3.42;57.63
80137;BME280;69466;55.948;37.484;2023-11-19T09:57:35;100252.06;;;-3.40;57.93
80137;BME280;69466;55.948;37.484;2023-11-19T10:00:10;100238.06;;;-3.42;57.81
80137;BME280;69466;55.948;37.484;2023-11-19T10:02:37;100230.44;;;-3.46;57.68
80137;BME280;69466;55.948;37.484;2023-11-19T10:05:06;100231.91;;;-3.42;58.11
80137;BME280;69466;55.948;37.484;2023-11-19T10:07:33;100236.00;;;-3.38;57.95
80137;BME280;69466;55.948;37.484;2023-11-19T10:10:02;100239.06;;;-3.32;57.61
80137;BME280;69466;55.948;37.484;2023-11-19T10:12:31;100227.09;;;-3.37;58.64
80137;BME280;69466;55.948;37.484;2023-11-19T10:14:58;100231.34;;;-3.35;57.63
80137;BME280;69466;55.948;37.484;2023-11-19T10:17:28;100236.84;;;-3.38;57.31
80137;BME280;69466;55.948;37.484;2023-11-19T10:19:57;100242.50;;;-3.42;57.27
80137;BME280;69466;55.948;37.484;2023-11-19T10:22:23;100227.69;;;-3.45;57.50
80137;BME280;69466;55.948;37.484;2023-11-19T10:24:52;100232.50;;;-3.39;57.77
80137;BME280;69466;55.948;37.484;2023-11-19T10:27:19;100224.09;;;-3.44;58.27
80137;BME280;69466;55.948;37.484;2023-11-19T10:29:46;100221.53;;;-3.45;57.49
80137;BME280;69466;55.948;37.484;2023-11-19T10:32:13;100208.13;;;-3.55;58.23
80137;BME280;69466;55.948;37.484;2023-11-19T10:34:40;100205.88;;;-3.72;58.27
80137;BME280;69466;55.948;37.484;2023-11-19T10:37:07;100212.84;;;-3.71;58.75
80137;BME280;69466;55.948;37.484;2023-11-19T10:39:52;100218.31;;;-3.73;58.71
80137;BME280;69466;55.948;37.484;2023-11-19T10:42:21;100217.22;;;-3.70;58.94
80137;BME280;69466;55.948;37.484;2023-11-19T10:44:48;100213.03;;;-3.62;58.47
80137;BME280;69466;55.948;37.484;2023-11-19T10:47:14;100207.00;;;-3.64;58.20
80137;BME280;69466;55.948;37.484;2023-11-19T10:49:44;100209.56;;;-3.62;57.67
80137;BME280;69466;55.948;37.484;2023-11-19T10:52:11;100208.31;;;-3.69;58.10
80137;BME280;69466;55.948;37.484;2023-11-19T10:54:44;100222.00;;;-3.75;57.23
80137;BME280;69466;55.948;37.484;2023-11-19T10:57:12;100216.50;;;-3.72;57.31
80137;BME280;69466;55.948;37.484;2023-11-19T10:59:41;100223.88;;;-3.65;58.73
80137;BME280;69466;55.948;37.484;2023-11-19T11:02:09;100215.38;;;-3.81;57.88
80137;BME280;69466;55.948;37.484;2023-11-19T11:04:40;100221.06;;;-3.74;58.47
80137;BME280;69466;55.948;37.484;2023-11-19T11:07:08;100218.41;;;-3.74;62.48
80137;BME280;69466;55.948;37.484;2023-11-19T11:09:35;100226.47;;;-3.76;63.70
80137;BME280;69466;55.948;37.484;2023-11-19T11:12:01;100218.97;;;-3.82;65.01
80137;BME280;69466;55.948;37.484;2023-11-19T11:14:29;100218.84;;;-3.80;64.87
80137;BME280;69466;55.948;37.484;2023-11-19T11:16:57;100210.69;;;-3.77;65.37
80137;BME280;69466;55.948;37.484;2023-11-19T11:19:23;100219.53;;;-3.89;66.08
80137;BME280;69466;55.948;37.484;2023-11-19T11:21:54;100219.75;;;-3.92;66.40
80137;BME280;69466;55.948;37.484;2023-11-19T11:33:06;100211.53;;;-4.00;67.41
80137;BME280;69466;55.948;37.484;2023-11-19T11:35:58;100219.06;;;-4.07;67.51
80137;BME280;69466;55.948;37.484;2023-11-19T11:38:29;100204.97;;;-4.08;68.10
80137;BME280;69466;55.948;37.484;2023-11-19T11:43:50;100187.25;;;-3.94;67.02
80137;BME280;69466;55.948;37.484;2023-11-19T11:49:05;100187.50;;;-4.10;66.49
80137;BME280;69466;55.948;37.484;2023-11-19T11:57:11;100187.78;;;-4.26;68.00
80137;BME280;69466;55.948;37.484;2023-11-19T12:02:08;100183.84;;;-4.20;67.51
80137;BME280;69466;55.948;37.484;2023-11-19T12:04:35;100193.06;;;-4.26;67.50
80137;BME280;69466;55.948;37.484;2023-11-19T12:07:19;100191.84;;;-4.33;68.29
80137;BME280;69466;55.948;37.484;2023-11-19T12:09:53;100185.59;;;-4.32;66.40
80137;BME280;69466;55.948;37.484;2023-11-19T12:12:32;100185.59;;;-4.32;67.89
80137;BME280;69466;55.948;37.484;2023-11-19T12:20:03;100182.78;;;-4.18;66.49
80137;BME280;69466;55.948;37.484;2023-11-19T12:22:31;100169.28;;;-4.38;66.87
80137;BME280;69466;55.948;37.484;2023-11-19T12:24:58;100184.34;;;-4.39;67.44
80137;BME280;69466;55.948;37.484;2023-11-19T12:27:24;100186.66;;;-4.34;66.72
80137;BME280;69466;55.948;37.484;2023-11-19T12:29:52;100196.06;;;-4.30;66.55
80137;BME280;69466;55.948;37.484;2023-11-19T12:32:18;100186.38;;;-4.19;67.09
80137;BME280;69466;55.948;37.484;2023-11-19T12:34:45;100166.59;;;-4.26;66.87
80137;BME280;69466;55.948;37.484;2023-11-19T12:37:11;100170.41;;;-4.17;67.15
80137;BME280;69466;55.948;37.484;2023-11-19T12:39:37;100166.38;;;-4.23;66.91
80137;BME280;69466;55.948;37.484;2023-11-19T12:42:03;100169.13;;;-4.24;67.62
80137;BME280;69466;55.948;37.484;2023-11-19T12:44:31;100161.78;;;-4.21;67.67
80137;BME280;69466;55.948;37.484;2023-11-19T12:47:04;100162.81;;;-4.11;67.24
80137;BME280;69466;55.948;37.484;2023-11-19T12:49:33;100165.28;;;-4.20;66.96
80137;BME280;69466;55.948;37.484;2023-11-19T12:51:59;100166.38;;;-4.23;66.06
80137;BME280;69466;55.948;37.484;2023-11-19T12:54:35;100163.66;;;-4.34;64.56
80137;BME280;69466;55.948;37.484;2023-11-19T12:57:02;100156.19;;;-4.40;64.59
80137;BME280;69466;55.948;37.484;2023-11-19T12:59:31;100162.09;;;-4.36;64.13
80137;BME280;69466;55.948;37.484;2023-11-19T13:01:57;100149.69;;;-4.36;64.57
80137;BME280;69466;55.948;37.484;2023-11-19T13:04:28;100147.25;;;-4.39;64.79
80137;BME280;69466;55.948;37.484;2023-11-19T13:06:57;100138.06;;;-4.46;64.62
80137;BME280;69466;55.948;37.484;2023-11-19T13:09:26;100154.06;;;-4.48;64.50